sensor_id;sensor_type;location;lat;lon;timestamp;P1;durP1;ratioP1;P2;durP2;ratioP2
69856;SDS011;57147;53.582;10.112;2022-08-05T00:02:46;18.27;;;7.38;;
69856;SDS011;57147;53.582;10.112;2022-08-05T00:07:47;10.27;;;6.57;;
69856;SDS011;57147;53.582;10.112;2022-08-05T00:12:47;12.18;;;6.93;;
69856;SDS011;57147;53.582;10.112;2022-08-05T00:17:51;13.23;;;5.10;;
69856;SDS011;57147;53.582;10.112;2022-08-05T00:22:51;10.65;;;4.40;;
69856;SDS011;57147;53.582;10.112;2022-08-05T00:27:52;11.27;;;5.45;;
69856;SDS011;57147;53.582;10.112;2022-08-05T00:32:55;9.38;;;4.88;;
69856;SDS011;57147;53.582;10.112;2022-08-05T00:37:56;8.20;;;4.07;;
69856;SDS011;57147;53.582;10.112;2022-08-05T00:42:57;7.85;;;3.78;;
69856;SDS011;57147;53.582;10.112;2022-08-05T00:48:02;7.55;;;3.15;;
69856;SDS011;57147;53.582;10.112;2022-08-05T00:53:03;6.55;;;2.72;;
69856;SDS011;57147;53.582;10.112;2022-08-05T00:58:03;7.40;;;3.03;;
69856;SDS011;57147;53.582;10.112;2022-08-05T01:03:07;5.72;;;3.33;;
69856;SDS011;57147;53.582;10.112;2022-08-05T01:08:07;6.28;;;2.70;;
69856;SDS011;57147;53.582;10.112;2022-08-05T01:13:12;4.97;;;2.63;;
69856;SDS011;57147;53.582;10.112;2022-08-05T01:18:21;4.95;;;2.40;;
69856;SDS011;57147;53.582;10.112;2022-08-05T01:23:27;5.32;;;2.47;;
69856;SDS011;57147;53.582;10.112;2022-08-05T01:28:41;5.68;;;1.15;;
69856;SDS011;57147;53.582;10.112;2022-08-05T01:33:45;5.78;;;2.22;;
69856;SDS011;57147;53.582;10.112;2022-08-05T01:38:49;5.75;;;2.40;;
69856;SDS011;57147;53.582;10.112;2022-08-05T01:43:52;4.15;;;1.77;;
69856;SDS011;57147;53.582;10.112;2022-08-05T01:48:54;4.78;;;1.70;;
69856;SDS011;57147;53.582;10.112;2022-08-05T01:53:55;3.80;;;1.60;;
69856;SDS011;57147;53.582;10.112;2022-08-05T01:59:01;3.30;;;1.30;;
69856;SDS011;57147;53.582;10.112;2022-08-05T02:04:03;4.90;;;1.70;;
69856;SDS011;57147;53.582;10.112;2022-08-05T02:09:05;5.13;;;2.13;;
69856;SDS011;57147;53.582;10.112;2022-08-05T02:14:11;3.22;;;2.08;;
69856;SDS011;57147;53.582;10.112;2022-08-05T02:19:16;3.17;;;1.60;;
69856;SDS011;57147;53.582;10.112;2022-08-05T02:24:22;4.10;;;1.95;;
69856;SDS011;57147;53.582;10.112;2022-08-05T02:29:30;3.15;;;0.70;;
69856;SDS011;57147;53.582;10.112;2022-08-05T02:34:34;3.00;;;1.80;;
69856;SDS011;57147;53.582;10.112;2022-08-05T02:39:36;3.13;;;1.90;;
69856;SDS011;57147;53.582;10.112;2022-08-05T02:44:41;4.07;;;1.98;;
69856;SDS011;57147;53.582;10.112;2022-08-05T02:49:43;4.70;;;2.00;;
69856;SDS011;57147;53.582;10.112;2022-08-05T02:54:45;10.18;;;1.42;;
69856;SDS011;57147;53.582;10.112;2022-08-05T02:59:50;7.68;;;3.28;;
69856;SDS011;57147;53.582;10.112;2022-08-05T03:04:51;13.23;;;4.13;;
69856;SDS011;57147;53.582;10.112;2022-08-05T03:09:54;6.50;;;3.92;;
69856;SDS011;57147;53.582;10.112;2022-08-05T03:14:58;6.70;;;4.00;;
69856;SDS011;57147;53.582;10.112;2022-08-05T03:19:58;6.40;;;3.67;;
69856;SDS011;57147;53.582;10.112;2022-08-05T03:24:59;8.45;;;4.22;;
69856;SDS011;57147;53.582;10.112;2022-08-05T03:30:03;7.03;;;3.33;;
69856;SDS011;57147;53.582;10.112;2022-08-05T03:40:07;6.07;;;4.03;;
69856;SDS011;57147;53.582;10.112;2022-08-05T03:45:11;7.95;;;3.50;;
69856;SDS011;57147;53.582;10.112;2022-08-05T03:50:12;5.47;;;4.05;;
69856;SDS011;57147;53.582;10.112;2022-08-05T03:55:14;7.47;;;3.35;;
69856;SDS011;57147;53.582;10.112;2022-08-05T04:00:23;7.22;;;4.00;;
69856;SDS011;57147;53.582;10.112;2022-08-05T04:05:26;7.18;;;4.88;;
69856;SDS011;57147;53.582;10.112;2022-08-05T04:10:30;7.72;;;5.10;;
69856;SDS011;57147;53.582;10.112;2022-08-05T04:15:34;5.47;;;3.83;;
69856;SDS011;57147;53.582;10.112;2022-08-05T04:20:35;6.90;;;3.75;;
69856;SDS011;57147;53.582;10.112;2022-08-05T04:25:35;7.65;;;3.92;;
69856;SDS011;57147;53.582;10.112;2022-08-05T04:30:39;5.35;;;3.13;;
69856;SDS011;57147;53.582;10.112;2022-08-05T04:35:39;7.00;;;4.75;;
69856;SDS011;57147;53.582;10.112;2022-08-05T04:40:40;6.63;;;4.05;;
69856;SDS011;57147;53.582;10.112;2022-08-05T04:45:43;6.82;;;4.03;;
69856;SDS011;57147;53.582;10.112;2022-08-05T04:50:47;6.28;;;3.75;;
69856;SDS011;57147;53.582;10.112;2022-08-05T04:55:48;5.40;;;2.58;;
69856;SDS011;57147;53.582;10.112;2022-08-05T05:00:52;6.20;;;3.72;;
69856;SDS011;57147;53.582;10.112;2022-08-05T05:05:52;5.90;;;4.03;;
69856;SDS011;57147;53.582;10.112;2022-08-05T05:10:53;9.10;;;4.68;;
69856;SDS011;57147;53.582;10.112;2022-08-05T05:15:56;7.47;;;4.88;;
69856;SDS011;57147;53.582;10.112;2022-08-05T05:20:57;9.30;;;4.25;;
69856;SDS011;57147;53.582;10.112;2022-08-05T05:25:58;7.80;;;5.68;;
69856;SDS011;57147;53.582;10.112;2022-08-05T05:31:01;7.60;;;5.32;;
69856;SDS011;57147;53.582;10.112;2022-08-05T05:36:01;5.82;;;3.78;;
69856;SDS011;57147;53.582;10.112;2022-08-05T05:41:02;11.50;;;6.10;;
69856;SDS011;57147;53.582;10.112;2022-08-05T05:46:05;9.15;;;6.28;;
69856;SDS011;57147;53.582;10.112;2022-08-05T05:51:06;8.80;;;6.88;;
69856;SDS011;57147;53.582;10.112;2022-08-05T05:56:07;15.07;;;10.45;;
69856;SDS011;57147;53.582;10.112;2022-08-05T06:01:10;8.23;;;5.18;;
69856;SDS011;57147;53.582;10.112;2022-08-05T06:06:10;7.85;;;5.38;;
69856;SDS011;57147;53.582;10.112;2022-08-05T06:11:11;8.45;;;4.32;;
69856;SDS011;57147;53.582;10.112;2022-08-05T06:16:14;8.32;;;4.40;;
69856;SDS011;57147;53.582;10.112;2022-08-05T06:21:15;7.32;;;4.43;;
69856;SDS011;57147;53.582;10.112;2022-08-05T06:26:16;6.40;;;4.32;;
69856;SDS011;57147;53.582;10.112;2022-08-05T06:31:19;6.22;;;4.05;;
69856;SDS011;57147;53.582;10.112;2022-08-05T06:36:20;7.13;;;4.55;;
69856;SDS011;57147;53.582;10.112;2022-08-05T06:41:21;7.10;;;3.78;;
69856;SDS011;57147;53.582;10.112;2022-08-05T06:46:24;6.35;;;3.90;;
69856;SDS011;57147;53.582;10.112;2022-08-05T06:51:25;7.78;;;4.70;;
69856;SDS011;57147;53.582;10.112;2022-08-05T06:56:25;8.38;;;4.20;;
69856;SDS011;57147;53.582;10.112;2022-08-05T07:01:29;5.43;;;4.10;;
69856;SDS011;57147;53.582;10.112;2022-08-05T07:06:30;6.00;;;3.55;;
69856;SDS011;57147;53.582;10.112;2022-08-05T07:11:31;8.00;;;3.53;;
69856;SDS011;57147;53.582;10.112;2022-08-05T07:16:35;6.13;;;4.25;;
69856;SDS011;57147;53.582;10.112;2022-08-05T07:21:35;7.07;;;4.38;;
69856;SDS011;57147;53.582;10.112;2022-08-05T07:26:36;6.57;;;4.80;;
69856;SDS011;57147;53.582;10.112;2022-08-05T07:31:39;5.35;;;3.78;;
69856;SDS011;57147;53.582;10.112;2022-08-05T07:36:40;5.25;;;4.28;;
69856;SDS011;57147;53.582;10.112;2022-08-05T07:41:41;6.63;;;3.95;;
69856;SDS011;57147;53.582;10.112;2022-08-05T07:46:44;7.93;;;3.85;;
69856;SDS011;57147;53.582;10.112;2022-08-05T07:51:46;7.22;;;4.80;;
69856;SDS011;57147;53.582;10.112;2022-08-05T07:56:46;6.10;;;4.35;;
69856;SDS011;57147;53.582;10.112;2022-08-05T08:01:50;7.75;;;3.28;;
69856;SDS011;57147;53.582;10.112;2022-08-05T08:06:50;7.97;;;4.57;;
69856;SDS011;57147;53.582;10.112;2022-08-05T08:11:51;10.52;;;6.13;;
69856;SDS011;57147;53.582;10.112;2022-08-05T08:16:54;8.23;;;6.20;;
69856;SDS011;57147;53.582;10.112;2022-08-05T08:21:55;8.80;;;6.43;;
69856;SDS011;57147;53.582;10.112;2022-08-05T08:26:55;9.43;;;8.23;;
69856;SDS011;57147;53.582;10.112;2022-08-05T08:31:59;11.23;;;6.88;;
69856;SDS011;57147;53.582;10.112;2022-08-05T08:36:59;9.15;;;5.93;;
69856;SDS011;57147;53.582;10.112;2022-08-05T08:42:00;6.97;;;4.95;;
69856;SDS011;57147;53.582;10.112;2022-08-05T08:47:05;9.80;;;6.93;;
69856;SDS011;57147;53.582;10.112;2022-08-05T08:52:08;7.07;;;6.03;;
69856;SDS011;57147;53.582;10.112;2022-08-05T08:57:12;13.05;;;6.70;;
69856;SDS011;57147;53.582;10.112;2022-08-05T09:02:16;7.47;;;4.28;;
69856;SDS011;57147;53.582;10.112;2022-08-05T09:07:18;8.50;;;5.75;;
69856;SDS011;57147;53.582;10.112;2022-08-05T09:12:19;5.97;;;3.72;;
69856;SDS011;57147;53.582;10.112;2022-08-05T09:17:23;8.93;;;6.40;;
69856;SDS011;57147;53.582;10.112;2022-08-05T09:22:23;7.20;;;3.65;;
69856;SDS011;57147;53.582;10.112;2022-08-05T09:27:31;9.13;;;4.93;;
69856;SDS011;57147;53.582;10.112;2022-08-05T09:32:36;7.95;;;5.03;;
69856;SDS011;57147;53.582;10.112;2022-08-05T09:37:39;9.82;;;4.75;;
69856;SDS011;57147;53.582;10.112;2022-08-05T09:42:49;5.50;;;2.13;;
69856;SDS011;57147;53.582;10.112;2022-08-05T09:47:52;3.92;;;2.83;;
69856;SDS011;57147;53.582;10.112;2022-08-05T09:52:55;3.75;;;2.05;;
69856;SDS011;57147;53.582;10.112;2022-08-05T09:57:56;8.38;;;5.53;;
69856;SDS011;57147;53.582;10.112;2022-08-05T10:03:00;5.82;;;3.00;;
69856;SDS011;57147;53.582;10.112;2022-08-05T10:08:09;7.10;;;4.40;;
69856;SDS011;57147;53.582;10.112;2022-08-05T10:13:10;6.43;;;4.15;;
69856;SDS011;57147;53.582;10.112;2022-08-05T10:18:14;5.10;;;2.85;;
69856;SDS011;57147;53.582;10.112;2022-08-05T10:23:17;4.68;;;3.85;;
69856;SDS011;57147;53.582;10.112;2022-08-05T10:28:21;4.93;;;2.83;;
69856;SDS011;57147;53.582;10.112;2022-08-05T10:33:25;5.88;;;1.83;;
69856;SDS011;57147;53.582;10.112;2022-08-05T10:38:27;6.75;;;3.03;;
69856;SDS011;57147;53.582;10.112;2022-08-05T10:43:32;5.93;;;2.97;;
69856;SDS011;57147;53.582;10.112;2022-08-05T10:48:41;5.47;;;3.50;;
69856;SDS011;57147;53.582;10.112;2022-08-05T10:53:44;7.18;;;3.75;;
69856;SDS011;57147;53.582;10.112;2022-08-05T10:59:03;9.57;;;5.25;;
69856;SDS011;57147;53.582;10.112;2022-08-05T11:04:09;12.95;;;9.20;;
69856;SDS011;57147;53.582;10.112;2022-08-05T11:14:23;5.95;;;3.50;;
69856;SDS011;57147;53.582;10.112;2022-08-05T11:19:29;5.00;;;2.40;;
69856;SDS011;57147;53.582;10.112;2022-08-05T11:24:30;3.38;;;2.08;;
69856;SDS011;57147;53.582;10.112;2022-08-05T11:29:34;4.55;;;2.90;;
69856;SDS011;57147;53.582;10.112;2022-08-05T11:34:40;5.47;;;3.50;;
69856;SDS011;57147;53.582;10.112;2022-08-05T11:39:48;4.63;;;1.35;;
69856;SDS011;57147;53.582;10.112;2022-08-05T11:44:50;5.10;;;1.42;;
69856;SDS011;57147;53.582;10.112;2022-08-05T11:49:58;2.53;;;1.80;;
69856;SDS011;57147;53.582;10.112;2022-08-05T11:54:59;28.88;;;17.05;;
69856;SDS011;57147;53.582;10.112;2022-08-05T12:00:00;3.95;;;2.45;;
69856;SDS011;57147;53.582;10.112;2022-08-05T12:05:03;4.25;;;2.65;;
69856;SDS011;57147;53.582;10.112;2022-08-05T12:10:06;4.05;;;2.33;;
69856;SDS011;57147;53.582;10.112;2022-08-05T12:15:17;5.25;;;1.85;;
69856;SDS011;57147;53.582;10.112;2022-08-05T12:20:20;3.15;;;2.03;;
69856;SDS011;57147;53.582;10.112;2022-08-05T12:25:26;3.03;;;1.27;;
69856;SDS011;57147;53.582;10.112;2022-08-05T12:30:27;8.55;;;6.32;;
69856;SDS011;57147;53.582;10.112;2022-08-05T12:35:39;5.30;;;2.22;;
69856;SDS011;57147;53.582;10.112;2022-08-05T12:40:40;2.28;;;0.50;;
69856;SDS011;57147;53.582;10.112;2022-08-05T12:45:49;3.13;;;1.70;;
69856;SDS011;57147;53.582;10.112;2022-08-05T12:56:25;3.80;;;2.20;;
69856;SDS011;57147;53.582;10.112;2022-08-05T13:01:32;4.00;;;1.65;;
69856;SDS011;57147;53.582;10.112;2022-08-05T13:06:39;2.45;;;1.70;;
69856;SDS011;57147;53.582;10.112;2022-08-05T13:11:44;4.32;;;2.60;;
69856;SDS011;57147;53.582;10.112;2022-08-05T13:16:49;5.53;;;1.63;;
69856;SDS011;57147;53.582;10.112;2022-08-05T13:21:54;5.43;;;3.88;;
69856;SDS011;57147;53.582;10.112;2022-08-05T13:26:55;2.65;;;1.40;;
69856;SDS011;57147;53.582;10.112;2022-08-05T13:31:56;3.50;;;1.65;;
69856;SDS011;57147;53.582;10.112;2022-08-05T13:36:59;3.92;;;2.00;;
69856;SDS011;57147;53.582;10.112;2022-08-05T13:41:59;3.22;;;1.88;;
69856;SDS011;57147;53.582;10.112;2022-08-05T13:47:00;3.42;;;1.25;;
69856;SDS011;57147;53.582;10.112;2022-08-05T13:52:11;4.13;;;1.77;;
69856;SDS011;57147;53.582;10.112;2022-08-05T13:57:13;5.38;;;1.70;;
69856;SDS011;57147;53.582;10.112;2022-08-05T14:02:15;2.33;;;1.48;;
69856;SDS011;57147;53.582;10.112;2022-08-05T14:07:20;3.08;;;1.65;;
69856;SDS011;57147;53.582;10.112;2022-08-05T14:12:22;2.25;;;1.17;;
69856;SDS011;57147;53.582;10.112;2022-08-05T14:17:23;3.67;;;1.60;;
69856;SDS011;57147;53.582;10.112;2022-08-05T14:22:27;3.25;;;1.55;;
69856;SDS011;57147;53.582;10.112;2022-08-05T14:27:27;3.58;;;1.45;;
69856;SDS011;57147;53.582;10.112;2022-08-05T14:32:28;3.53;;;2.13;;
69856;SDS011;57147;53.582;10.112;2022-08-05T14:37:31;3.40;;;1.63;;
69856;SDS011;57147;53.582;10.112;2022-08-05T14:42:34;3.35;;;1.80;;
69856;SDS011;57147;53.582;10.112;2022-08-05T14:47:35;2.38;;;1.88;;
69856;SDS011;57147;53.582;10.112;2022-08-05T14:52:39;4.07;;;2.08;;
69856;SDS011;57147;53.582;10.112;2022-08-05T14:57:39;3.03;;;1.58;;
69856;SDS011;57147;53.582;10.112;2022-08-05T15:02:40;2.75;;;2.08;;
69856;SDS011;57147;53.582;10.112;2022-08-05T15:07:43;3.83;;;1.65;;
69856;SDS011;57147;53.582;10.112;2022-08-05T15:12:44;4.55;;;1.70;;
69856;SDS011;57147;53.582;10.112;2022-08-05T15:17:45;3.55;;;2.13;;
69856;SDS011;57147;53.582;10.112;2022-08-05T15:22:48;3.33;;;2.00;;
69856;SDS011;57147;53.582;10.112;2022-08-05T15:27:49;2.63;;;1.13;;
69856;SDS011;57147;53.582;10.112;2022-08-05T15:32:49;4.22;;;3.17;;
69856;SDS011;57147;53.582;10.112;2022-08-05T15:37:53;5.05;;;2.65;;
69856;SDS011;57147;53.582;10.112;2022-08-05T15:42:54;4.97;;;2.10;;
69856;SDS011;57147;53.582;10.112;2022-08-05T15:47:55;7.68;;;3.30;;
69856;SDS011;57147;53.582;10.112;2022-08-05T15:52:58;3.13;;;2.70;;
69856;SDS011;57147;53.582;10.112;2022-08-05T15:57:59;3.25;;;1.83;;
69856;SDS011;57147;53.582;10.112;2022-08-05T16:02:59;2.55;;;0.80;;
69856;SDS011;57147;53.582;10.112;2022-08-05T16:08:03;2.65;;;1.30;;
69856;SDS011;57147;53.582;10.112;2022-08-05T16:13:04;3.72;;;2.00;;
69856;SDS011;57147;53.582;10.112;2022-08-05T16:18:04;2.20;;;1.38;;
69856;SDS011;57147;53.582;10.112;2022-08-05T16:23:08;3.05;;;1.05;;
69856;SDS011;57147;53.582;10.112;2022-08-05T16:28:08;3.97;;;1.42;;
69856;SDS011;57147;53.582;10.112;2022-08-05T16:33:09;3.47;;;1.00;;
69856;SDS011;57147;53.582;10.112;2022-08-05T16:38:12;1.65;;;0.88;;
69856;SDS011;57147;53.582;10.112;2022-08-05T16:43:13;2.60;;;0.63;;
69856;SDS011;57147;53.582;10.112;2022-08-05T16:48:13;1.55;;;0.25;;
69856;SDS011;57147;53.582;10.112;2022-08-05T16:53:17;4.13;;;0.90;;
69856;SDS011;57147;53.582;10.112;2022-08-05T16:58:17;1.40;;;0.85;;
69856;SDS011;57147;53.582;10.112;2022-08-05T17:03:18;1.88;;;0.88;;
69856;SDS011;57147;53.582;10.112;2022-08-05T17:08:21;1.20;;;0.47;;
69856;SDS011;57147;53.582;10.112;2022-08-05T17:13:22;2.13;;;0.75;;
69856;SDS011;57147;53.582;10.112;2022-08-05T17:18:22;1.13;;;0.63;;
69856;SDS011;57147;53.582;10.112;2022-08-05T17:23:26;2.63;;;0.93;;
69856;SDS011;57147;53.582;10.112;2022-08-05T17:28:26;1.95;;;1.33;;
69856;SDS011;57147;53.582;10.112;2022-08-05T17:33:27;1.55;;;0.35;;
69856;SDS011;57147;53.582;10.112;2022-08-05T17:38:30;1.90;;;0.77;;
69856;SDS011;57147;53.582;10.112;2022-08-05T17:43:31;3.08;;;0.65;;
69856;SDS011;57147;53.582;10.112;2022-08-05T17:48:31;2.33;;;0.80;;
69856;SDS011;57147;53.582;10.112;2022-08-05T17:53:35;1.88;;;0.50;;
69856;SDS011;57147;53.582;10.112;2022-08-05T17:58:35;1.85;;;1.25;;
69856;SDS011;57147;53.582;10.112;2022-08-05T18:03:36;1.45;;;0.73;;
69856;SDS011;57147;53.582;10.112;2022-08-05T18:08:39;1.45;;;0.63;;
69856;SDS011;57147;53.582;10.112;2022-08-05T18:13:41;2.53;;;0.82;;
69856;SDS011;57147;53.582;10.112;2022-08-05T18:18:41;1.08;;;0.75;;
69856;SDS011;57147;53.582;10.112;2022-08-05T18:23:45;2.35;;;0.47;;
69856;SDS011;57147;53.582;10.112;2022-08-05T18:28:45;1.52;;;0.60;;
69856;SDS011;57147;53.582;10.112;2022-08-05T18:33:46;4.45;;;0.85;;
69856;SDS011;57147;53.582;10.112;2022-08-05T18:38:49;2.03;;;0.77;;
69856;SDS011;57147;53.582;10.112;2022-08-05T18:43:50;1.50;;;0.80;;
69856;SDS011;57147;53.582;10.112;2022-08-05T18:48:50;1.70;;;0.75;;
69856;SDS011;57147;53.582;10.112;2022-08-05T18:53:54;1.83;;;1.45;;
69856;SDS011;57147;53.582;10.112;2022-08-05T18:58:55;2.83;;;1.45;;
69856;SDS011;57147;53.582;10.112;2022-08-05T19:03:55;1.80;;;0.80;;
69856;SDS011;57147;53.582;10.112;2022-08-05T19:08:58;1.48;;;0.55;;
69856;SDS011;57147;53.582;10.112;2022-08-05T19:13:59;1.95;;;1.08;;
69856;SDS011;57147;53.582;10.112;2022-08-05T19:19:00;1.33;;;1.13;;
69856;SDS011;57147;53.582;10.112;2022-08-05T19:24:03;1.52;;;1.10;;
69856;SDS011;57147;53.582;10.112;2022-08-05T19:29:05;1.77;;;0.80;;
69856;SDS011;57147;53.582;10.112;2022-08-05T19:34:06;2.45;;;0.43;;
69856;SDS011;57147;53.582;10.112;2022-08-05T19:39:09;1.45;;;1.08;;
69856;SDS011;57147;53.582;10.112;2022-08-05T19:44:10;2.03;;;1.23;;
69856;SDS011;57147;53.582;10.112;2022-08-05T19:49:10;1.17;;;1.10;;
69856;SDS011;57147;53.582;10.112;2022-08-05T19:54:14;2.20;;;1.30;;
69856;SDS011;57147;53.582;10.112;2022-08-05T19:59:14;3.08;;;2.15;;
69856;SDS011;57147;53.582;10.112;2022-08-05T20:04:15;1.85;;;1.25;;
69856;SDS011;57147;53.582;10.112;2022-08-05T20:09:18;3.53;;;2.22;;
69856;SDS011;57147;53.582;10.112;2022-08-05T20:14:19;1.05;;;0.20;;
69856;SDS011;57147;53.582;10.112;2022-08-05T20:19:20;1.63;;;1.40;;
69856;SDS011;57147;53.582;10.112;2022-08-05T20:24:23;3.33;;;1.65;;
69856;SDS011;57147;53.582;10.112;2022-08-05T20:29:23;2.92;;;1.77;;
69856;SDS011;57147;53.582;10.112;2022-08-05T20:34:24;2.42;;;1.80;;
69856;SDS011;57147;53.582;10.112;2022-08-05T20:39:28;4.70;;;2.47;;
69856;SDS011;57147;53.582;10.112;2022-08-05T20:44:28;1.88;;;1.13;;
69856;SDS011;57147;53.582;10.112;2022-08-05T20:49:30;3.22;;;1.90;;
69856;SDS011;57147;53.582;10.112;2022-08-05T20:54:34;2.63;;;2.47;;
69856;SDS011;57147;53.582;10.112;2022-08-05T20:59:35;3.92;;;1.60;;
69856;SDS011;57147;53.582;10.112;2022-08-05T21:04:35;1.90;;;1.20;;
69856;SDS011;57147;53.582;10.112;2022-08-05T21:09:39;1.38;;;1.27;;
69856;SDS011;57147;53.582;10.112;2022-08-05T21:14:39;2.00;;;1.58;;
69856;SDS011;57147;53.582;10.112;2022-08-05T21:19:40;3.38;;;1.50;;
69856;SDS011;57147;53.582;10.112;2022-08-05T21:24:43;2.55;;;1.48;;
69856;SDS011;57147;53.582;10.112;2022-08-05T21:29:44;3.17;;;1.75;;
69856;SDS011;57147;53.582;10.112;2022-08-05T21:34:45;2.53;;;1.88;;
69856;SDS011;57147;53.582;10.112;2022-08-05T21:39:48;2.55;;;1.65;;
69856;SDS011;57147;53.582;10.112;2022-08-05T21:44:48;2.17;;;1.85;;
69856;SDS011;57147;53.582;10.112;2022-08-05T21:49:49;6.10;;;4.32;;
69856;SDS011;57147;53.582;10.112;2022-08-05T21:54:58;2.70;;;1.85;;
69856;SDS011;57147;53.582;10.112;2022-08-05T21:59:59;4.90;;;0.93;;
69856;SDS011;57147;53.582;10.112;2022-08-05T22:05:00;1.80;;;0.20;;
69856;SDS011;57147;53.582;10.112;2022-08-05T22:10:06;2.95;;;1.83;;
69856;SDS011;57147;53.582;10.112;2022-08-05T22:15:09;2.78;;;1.42;;
69856;SDS011;57147;53.582;10.112;2022-08-05T22:20:11;2.38;;;0.85;;
69856;SDS011;57147;53.582;10.112;2022-08-05T22:25:15;2.60;;;1.17;;
69856;SDS011;57147;53.582;10.112;2022-08-05T22:30:15;1.77;;;1.10;;
69856;SDS011;57147;53.582;10.112;2022-08-05T22:35:16;3.85;;;1.42;;
69856;SDS011;57147;53.582;10.112;2022-08-05T22:40:19;5.82;;;1.50;;
69856;SDS011;57147;53.582;10.112;2022-08-05T22:45:20;2.97;;;0.95;;
69856;SDS011;57147;53.582;10.112;2022-08-05T22:50:20;3.88;;;2.25;;
69856;SDS011;57147;53.582;10.112;2022-08-05T22:55:24;3.60;;;1.05;;
69856;SDS011;57147;53.582;10.112;2022-08-05T23:00:24;7.05;;;1.45;;
69856;SDS011;57147;53.582;10.112;2022-08-05T23:05:25;3.25;;;1.45;;
69856;SDS011;57147;53.582;10.112;2022-08-05T23:10:28;2.78;;;1.35;;
69856;SDS011;57147;53.582;10.112;2022-08-05T23:15:29;2.33;;;1.00;;
69856;SDS011;57147;53.582;10.112;2022-08-05T23:20:30;2.08;;;0.50;;
69856;SDS011;57147;53.582;10.112;2022-08-05T23:25:34;1.80;;;1.33;;
69856;SDS011;57147;53.582;10.112;2022-08-05T23:30:35;2.50;;;1.38;;
69856;SDS011;57147;53.582;10.112;2022-08-05T23:35:36;3.58;;;0.82;;
69856;SDS011;57147;53.582;10.112;2022-08-05T23:40:39;3.47;;;1.98;;
69856;SDS011;57147;53.582;10.112;2022-08-05T23:45:40;2.85;;;1.83;;
69856;SDS011;57147;53.582;10.112;2022-08-05T23:50:40;1.85;;;1.13;;
69856;SDS011;57147;53.582;10.112;2022-08-05T23:55:43;2.08;;;0.80;;
